createdAt,value
2022-12-20T00:01:52.981Z,71.63
2022-12-20T00:04:21.073Z,71.80
2022-12-20T00:06:48.917Z,72.04
2022-12-20T00:09:16.921Z,72.69
2022-12-20T00:11:44.598Z,72.86
2022-12-20T00:14:12.673Z,72.65
2022-12-20T00:16:40.328Z,72.85
2022-12-20T00:19:10.806Z,73.30
2022-12-20T00:21:38.754Z,73.22
2022-12-20T00:24:07.412Z,73.16
2022-12-20T00:26:36.393Z,73.55
2022-12-20T00:29:06.459Z,73.44
2022-12-20T00:31:35.396Z,73.34
2022-12-20T00:34:03.590Z,72.69
2022-12-20T00:36:33.156Z,72.71
2022-12-20T00:39:02.253Z,72.22
2022-12-20T00:41:33.922Z,71.81
2022-12-20T00:44:03.021Z,72.00
2022-12-20T00:46:32.055Z,71.96
2022-12-20T00:49:00.741Z,71.28
2022-12-20T00:51:31.290Z,71.56
2022-12-20T00:53:59.310Z,71.33
2022-12-20T00:56:27.058Z,70.97
2022-12-20T00:58:59.913Z,70.81
2022-12-20T01:01:32.011Z,70.81
2022-12-20T01:04:00.804Z,70.55
2022-12-20T01:06:30.033Z,70.46
2022-12-20T01:08:59.256Z,69.99
2022-12-20T01:11:34.255Z,69.60
2022-12-20T01:14:18.286Z,69.45
2022-12-20T01:16:48.270Z,68.55
2022-12-20T01:19:18.440Z,68.29
2022-12-20T01:21:46.574Z,67.85
2022-12-20T01:24:18.294Z,67.60
2022-12-20T01:26:46.918Z,67.96
2022-12-20T01:29:15.595Z,67.76
2022-12-20T01:31:44.249Z,67.91
2022-12-20T01:34:12.661Z,67.59
2022-12-20T01:36:40.985Z,67.69
2022-12-20T01:39:14.575Z,67.39
2022-12-20T01:41:45.413Z,67.28
2022-12-20T01:44:19.399Z,67.51
2022-12-20T01:46:49.958Z,67.63
2022-12-20T01:49:30.712Z,66.64
2022-12-20T01:52:08.669Z,66.60
2022-12-20T01:55:00.540Z,66.94
2022-12-20T01:57:49.670Z,67.00
2022-12-20T02:00:18.006Z,67.05
2022-12-20T02:02:49.410Z,67.10
2022-12-20T02:05:21.297Z,66.82
2022-12-20T02:07:54.345Z,66.80
2022-12-20T02:10:30.166Z,67.38
2022-12-20T02:13:11.007Z,66.92
2022-12-20T02:15:58.952Z,66.78
2022-12-20T02:19:00.359Z,66.88
2022-12-20T02:21:50.853Z,66.92
2022-12-20T02:24:58.910Z,67.13
2022-12-20T02:27:41.259Z,67.01
2022-12-20T02:30:12.355Z,67.22
2022-12-20T02:32:56.612Z,67.25
2022-12-20T02:35:32.208Z,67.66
2022-12-20T02:38:35.235Z,67.38
2022-12-20T02:41:08.163Z,67.41
2022-12-20T02:44:00.527Z,67.06
2022-12-20T02:46:29.444Z,67.65
2022-12-20T02:49:03.105Z,67.62
2022-12-20T02:51:32.677Z,67.33
2022-12-20T02:54:01.799Z,67.58
2022-12-20T02:56:45.723Z,67.79
2022-12-20T02:59:50.652Z,67.66
2022-12-20T03:02:19.321Z,67.67
2022-12-20T03:04:49.999Z,67.35
2022-12-20T03:07:17.838Z,67.28
2022-12-20T03:09:46.053Z,67.43
2022-12-20T03:12:16.283Z,67.59
2022-12-20T03:14:44.618Z,67.50
2022-12-20T03:17:15.169Z,67.78
2022-12-20T03:19:43.358Z,67.15
2022-12-20T03:22:11.705Z,67.96
2022-12-20T03:24:39.704Z,67.85
2022-12-20T03:27:12.259Z,67.42
2022-12-20T03:29:40.428Z,67.30
2022-12-20T03:32:08.526Z,67.87
2022-12-20T03:34:36.562Z,67.82
2022-12-20T03:37:04.675Z,67.19
2022-12-20T03:39:32.722Z,67.18
2022-12-20T03:42:00.973Z,67.63
2022-12-20T03:44:28.947Z,67.58
2022-12-20T03:46:56.679Z,68.08
2022-12-20T03:49:24.547Z,67.97
2022-12-20T03:51:53.105Z,67.35
2022-12-20T03:54:21.283Z,67.91
2022-12-20T03:57:21.280Z,67.08
2022-12-20T03:59:52.012Z,67.60
2022-12-20T04:02:21.852Z,67.27
2022-12-20T04:04:50.873Z,67.10
2022-12-20T04:07:18.705Z,67.25
2022-12-20T04:09:48.435Z,67.29
2022-12-20T04:12:16.919Z,67.72
2022-12-20T04:14:45.465Z,66.91
2022-12-20T04:17:14.142Z,67.24
2022-12-20T04:19:42.900Z,67.19
2022-12-20T04:22:10.619Z,67.00
2022-12-20T04:24:50.866Z,66.98
2022-12-20T04:27:32.381Z,67.30
2022-12-20T04:30:01.526Z,66.94
2022-12-20T04:32:29.915Z,67.18
2022-12-20T04:34:58.304Z,67.00
2022-12-20T04:37:25.908Z,66.65
2022-12-20T04:39:56.458Z,66.48
2022-12-20T04:42:27.526Z,67.13
2022-12-20T04:44:56.650Z,67.06
2022-12-20T04:47:27.739Z,66.83
2022-12-20T04:49:56.437Z,66.46
2022-12-20T04:52:47.694Z,66.82
2022-12-20T04:55:17.333Z,66.15
2022-12-20T04:57:45.553Z,66.25
2022-12-20T05:00:15.892Z,66.62
2022-12-20T05:02:47.474Z,66.51
2022-12-20T05:05:18.904Z,65.95
2022-12-20T05:07:51.884Z,66.46
2022-12-20T05:10:20.168Z,66.48
2022-12-20T05:12:49.340Z,66.93
2022-12-20T05:15:27.443Z,66.62
2022-12-20T05:17:59.564Z,66.12
2022-12-20T05:20:34.235Z,67.13
2022-12-20T05:23:21.969Z,66.51
2022-12-20T05:26:12.766Z,66.61
2022-12-20T05:28:41.166Z,66.32
2022-12-20T05:31:09.445Z,66.86
2022-12-20T05:33:37.597Z,67.02
2022-12-20T05:36:06.830Z,66.75
2022-12-20T05:38:34.434Z,66.69
2022-12-20T05:41:05.023Z,66.38
2022-12-20T05:43:33.916Z,66.17
2022-12-20T05:46:01.940Z,66.01
2022-12-20T05:48:38.350Z,66.02
2022-12-20T05:51:06.483Z,66.66
2022-12-20T05:53:41.041Z,66.49
2022-12-20T05:56:09.325Z,65.36
2022-12-20T05:58:40.374Z,65.90
2022-12-20T06:01:10.678Z,65.59
2022-12-20T06:03:40.773Z,66.18
2022-12-20T06:06:15.600Z,65.56
2022-12-20T06:08:46.225Z,66.28
2022-12-20T06:11:35.250Z,65.96
2022-12-20T06:14:09.415Z,66.13
2022-12-20T06:16:41.862Z,66.00
2022-12-20T06:19:16.027Z,66.53
2022-12-20T06:21:47.802Z,66.52
2022-12-20T06:24:18.719Z,66.02
2022-12-20T06:26:47.482Z,65.53
2022-12-20T06:29:17.596Z,65.80
2022-12-20T06:31:52.014Z,65.36
2022-12-20T06:34:20.620Z,65.66
2022-12-20T06:36:48.717Z,65.36
2022-12-20T06:39:23.546Z,65.29
2022-12-20T06:42:05.992Z,65.00
2022-12-20T06:44:35.973Z,68.15
2022-12-20T06:47:04.561Z,80.02
2022-12-20T06:49:32.487Z,79.53
2022-12-20T06:52:00.601Z,71.39
2022-12-20T06:54:43.590Z,66.73
2022-12-20T06:57:12.076Z,55.72
2022-12-20T06:59:41.022Z,54.66
2022-12-20T07:02:12.027Z,54.30
2022-12-20T07:04:40.070Z,54.63
2022-12-20T07:07:08.183Z,54.62
2022-12-20T07:09:35.784Z,53.78
2022-12-20T07:12:03.864Z,52.70
2022-12-20T07:14:31.388Z,53.92
2022-12-20T07:16:59.518Z,53.80
2022-12-20T07:19:27.162Z,54.01
2022-12-20T07:21:55.279Z,53.36
2022-12-20T07:24:23.410Z,52.59
2022-12-20T07:26:51.302Z,52.95
2022-12-20T07:29:18.917Z,54.27
2022-12-20T07:33:03.273Z,55.28
2022-12-20T07:35:31.002Z,56.68
2022-12-20T07:37:58.967Z,57.47
2022-12-20T07:40:26.557Z,57.30
2022-12-20T07:42:54.494Z,58.06
2022-12-20T07:45:22.230Z,58.24
2022-12-20T07:47:50.159Z,58.08
2022-12-20T07:50:17.891Z,58.21
2022-12-20T07:52:47.153Z,57.94
2022-12-20T07:55:15.582Z,57.73
2022-12-20T07:57:52.947Z,57.72
2022-12-20T08:00:21.018Z,57.70
2022-12-20T08:03:01.791Z,57.56
2022-12-20T08:05:53.269Z,56.83
2022-12-20T08:08:22.224Z,57.33
2022-12-20T08:10:50.843Z,57.22
2022-12-20T08:13:19.319Z,57.20
2022-12-20T08:15:47.095Z,57.08
2022-12-20T08:18:16.277Z,56.92
2022-12-20T08:20:43.878Z,56.39
2022-12-20T08:23:12.298Z,55.91
2022-12-20T08:25:42.109Z,55.42
2022-12-20T08:28:10.590Z,55.44
2022-12-20T08:30:38.532Z,54.86
2022-12-20T08:33:06.827Z,54.76
2022-12-20T08:35:34.522Z,55.56
2022-12-20T08:38:02.502Z,54.50
2022-12-20T08:40:30.086Z,54.77
2022-12-20T08:43:01.377Z,54.62
2022-12-20T08:45:32.868Z,54.71
2022-12-20T08:48:01.034Z,54.92
2022-12-20T08:50:29.517Z,53.44
2022-12-20T08:52:57.651Z,53.92
2022-12-20T08:55:29.557Z,53.60
2022-12-20T08:57:57.702Z,53.55
2022-12-20T09:00:25.583Z,53.51
2022-12-20T09:02:55.551Z,52.99
2022-12-20T09:05:23.454Z,52.36
2022-12-20T09:07:51.245Z,52.35
2022-12-20T09:10:18.927Z,52.67
2022-12-20T09:12:46.801Z,52.76
2022-12-20T09:15:15.414Z,51.93
2022-12-20T09:17:43.248Z,51.98
2022-12-20T09:20:10.967Z,52.35
2022-12-20T09:22:38.782Z,51.55
2022-12-20T09:25:07.225Z,52.28
2022-12-20T09:27:35.109Z,53.00
2022-12-20T09:30:03.302Z,53.07
2022-12-20T09:32:31.215Z,52.61
2022-12-20T09:34:58.760Z,52.31
2022-12-20T09:37:32.313Z,52.62
2022-12-20T09:40:00.104Z,52.64
2022-12-20T09:42:30.192Z,52.25
2022-12-20T09:45:08.570Z,52.22
2022-12-20T09:47:39.202Z,52.15
2022-12-20T09:50:14.893Z,51.87
2022-12-20T09:52:51.920Z,52.26
2022-12-20T09:55:43.492Z,52.59
2022-12-20T09:58:38.976Z,52.53
2022-12-20T10:01:25.385Z,51.97
2022-12-20T10:03:56.403Z,52.00
2022-12-20T10:06:48.782Z,51.74
2022-12-20T10:09:50.312Z,51.63
2022-12-20T10:13:14.294Z,50.84
2022-12-20T10:15:52.590Z,51.39
2022-12-20T10:18:35.500Z,50.88
2022-12-20T10:21:31.995Z,50.69
2022-12-20T10:24:05.361Z,51.00
2022-12-20T10:26:34.426Z,50.66
2022-12-20T10:29:02.112Z,50.42
2022-12-20T10:31:30.400Z,51.02
2022-12-20T10:33:58.183Z,51.00
2022-12-20T10:36:27.061Z,51.55
2022-12-20T10:39:04.862Z,50.52
2022-12-20T10:41:45.353Z,51.35
2022-12-20T10:44:26.445Z,50.88
2022-12-20T10:47:00.990Z,51.29
2022-12-20T10:49:41.193Z,51.36
2022-12-20T10:52:11.580Z,51.02
2022-12-20T10:54:45.312Z,51.77
2022-12-20T10:57:33.668Z,51.63
2022-12-20T11:00:09.224Z,51.12
2022-12-20T11:02:42.475Z,50.59
2022-12-20T11:05:10.710Z,50.83
2022-12-20T11:08:33.531Z,51.07
2022-12-20T11:10:44.132Z,50.72
2022-12-20T11:13:26.636Z,50.50
2022-12-20T11:15:57.739Z,50.87
2022-12-20T11:18:37.649Z,50.62
2022-12-20T11:21:28.485Z,50.68
2022-12-20T11:24:29.052Z,50.03
2022-12-20T11:27:15.916Z,48.93
2022-12-20T11:30:05.118Z,49.70
2022-12-20T11:33:22.949Z,49.60
2022-12-20T11:36:02.642Z,48.30
2022-12-20T11:38:58.993Z,48.33
2022-12-20T11:41:58.699Z,48.63
2022-12-20T11:44:53.296Z,47.57
2022-12-20T11:48:05.806Z,48.34
2022-12-20T11:51:26.313Z,47.47
2022-12-20T11:54:06.715Z,46.98
2022-12-20T11:56:44.689Z,47.17
2022-12-20T11:59:50.636Z,46.54
2022-12-20T12:02:54.725Z,46.71
2022-12-20T12:05:39.940Z,46.10
2022-12-20T12:08:32.001Z,45.33
2022-12-20T12:12:03.988Z,45.21
2022-12-20T12:14:15.967Z,45.79
2022-12-20T12:16:51.633Z,45.08
2022-12-20T12:19:19.321Z,44.16
2022-12-20T12:22:01.657Z,43.88
2022-12-20T12:24:39.307Z,42.94
2022-12-20T12:27:24.923Z,42.65
2022-12-20T12:29:56.450Z,42.59
2022-12-20T12:32:43.969Z,42.88
2022-12-20T12:35:47.464Z,42.21
2022-12-20T12:39:14.190Z,41.18
2022-12-20T12:42:01.201Z,40.69
2022-12-20T12:44:47.082Z,40.13
2022-12-20T12:47:36.643Z,40.73
2022-12-20T12:50:10.195Z,40.67
2022-12-20T12:52:46.315Z,40.76
2022-12-20T12:55:38.516Z,39.85
2022-12-20T12:58:24.224Z,39.99
2022-12-20T13:00:55.739Z,40.35
2022-12-20T13:03:52.115Z,40.05
2022-12-20T13:06:26.286Z,39.75
2022-12-20T13:08:59.560Z,39.59
2022-12-20T13:11:33.647Z,39.48
2022-12-20T13:14:24.758Z,39.44
2022-12-20T13:19:52.633Z,38.65
2022-12-20T13:22:25.646Z,38.88
2022-12-20T13:24:57.013Z,38.81
2022-12-20T13:27:39.142Z,38.32
2022-12-20T13:30:14.545Z,38.29
2022-12-20T13:32:48.579Z,38.31
2022-12-20T13:35:25.078Z,38.37
2022-12-20T13:37:55.601Z,38.82
2022-12-20T13:40:47.930Z,39.46
2022-12-20T13:43:24.446Z,40.35
2022-12-20T13:45:56.207Z,41.07
2022-12-20T13:48:49.054Z,41.79
2022-12-20T13:51:25.923Z,42.52
2022-12-20T13:54:01.871Z,43.18
2022-12-20T13:56:33.709Z,44.47
2022-12-20T13:59:22.627Z,45.29
2022-12-20T14:01:57.817Z,45.47
2022-12-20T14:04:45.049Z,46.15
2022-12-20T14:07:18.604Z,46.81
2022-12-20T14:09:54.747Z,46.66
2022-12-20T14:12:27.543Z,48.08
2022-12-20T14:14:59.631Z,48.18
2022-12-20T14:17:32.422Z,48.37
2022-12-20T14:20:51.562Z,48.84
2022-12-20T14:23:25.192Z,48.85
2022-12-20T14:25:59.401Z,50.13
2022-12-20T14:28:46.180Z,49.87
2022-12-20T14:31:32.273Z,49.61
2022-12-20T14:34:13.526Z,50.36
2022-12-20T14:36:49.341Z,50.22
2022-12-20T14:39:34.277Z,50.78
2022-12-20T14:42:12.604Z,51.38
2022-12-20T14:44:40.551Z,50.54
2022-12-20T14:47:25.144Z,50.56
2022-12-20T14:50:00.642Z,50.98
2022-12-20T14:52:48.830Z,51.22
2022-12-20T14:55:39.712Z,51.98
2022-12-20T14:58:34.164Z,52.01
2022-12-20T15:01:27.237Z,51.77
2022-12-20T15:04:00.504Z,52.27
2022-12-20T15:06:55.196Z,51.86
2022-12-20T15:09:23.464Z,52.30
2022-12-20T15:11:52.246Z,52.76
2022-12-20T15:14:39.377Z,52.90
2022-12-20T15:17:17.176Z,52.92
2022-12-20T15:19:45.335Z,52.99
2022-12-20T15:22:20.333Z,52.95
2022-12-20T15:24:48.397Z,52.82
2022-12-20T15:27:16.491Z,53.38
2022-12-20T15:29:44.419Z,53.29
2022-12-20T15:32:29.858Z,53.27
2022-12-20T15:34:57.963Z,53.29
2022-12-20T15:37:25.634Z,53.36
2022-12-20T15:39:53.463Z,53.25
2022-12-20T15:42:23.009Z,53.43
2022-12-20T15:44:51.182Z,53.22
2022-12-20T15:47:18.734Z,53.32
2022-12-20T15:49:50.372Z,53.53
2022-12-20T15:52:24.393Z,53.06
2022-12-20T15:54:52.734Z,52.62
2022-12-20T15:57:21.217Z,53.14
2022-12-20T16:00:01.074Z,52.33
2022-12-20T16:02:39.465Z,55.47
2022-12-20T16:05:14.018Z,52.73
2022-12-20T16:07:41.799Z,52.09
2022-12-20T16:10:14.581Z,51.72
2022-12-20T16:12:42.676Z,51.89
2022-12-20T16:15:23.104Z,51.89
2022-12-20T16:17:51.196Z,51.85
2022-12-20T16:20:19.864Z,51.77
2022-12-20T16:22:48.125Z,52.17
2022-12-20T16:25:33.638Z,52.38
2022-12-20T16:28:02.606Z,52.31
2022-12-20T16:30:30.877Z,51.62
2022-12-20T16:32:59.709Z,51.80
2022-12-20T16:35:36.444Z,52.11
2022-12-20T16:38:05.856Z,51.99
2022-12-20T16:40:35.119Z,52.00
2022-12-20T16:43:02.728Z,51.86
2022-12-20T16:45:32.101Z,52.44
2022-12-20T16:47:59.949Z,52.14
2022-12-20T16:50:28.148Z,52.00
2022-12-20T16:52:56.587Z,51.93
2022-12-20T16:55:27.404Z,52.95
2022-12-20T16:57:55.202Z,52.16
2022-12-20T17:00:27.208Z,52.92
2022-12-20T17:02:55.377Z,53.25
2022-12-20T17:05:33.483Z,53.01
2022-12-20T17:08:01.472Z,53.12
2022-12-20T17:10:30.769Z,52.82
2022-12-20T17:12:58.812Z,52.87
2022-12-20T17:15:31.839Z,52.64
2022-12-20T17:17:59.457Z,52.75
2022-12-20T17:20:30.093Z,52.68
2022-12-20T17:25:53.868Z,52.70
2022-12-20T17:28:22.201Z,52.31
2022-12-20T17:30:50.654Z,53.01
2022-12-20T17:33:18.266Z,52.80
2022-12-20T17:35:46.294Z,52.36
2022-12-20T17:38:14.028Z,52.70
2022-12-20T17:40:42.018Z,52.91
2022-12-20T17:43:12.514Z,52.89
2022-12-20T17:45:41.297Z,53.45
2022-12-20T17:48:08.994Z,53.54
2022-12-20T17:50:37.230Z,53.25
2022-12-20T17:53:05.428Z,53.72
2022-12-20T17:55:33.717Z,54.06
2022-12-20T17:58:01.649Z,53.77
2022-12-20T18:00:38.791Z,53.63
2022-12-20T18:03:07.731Z,53.93
2022-12-20T18:05:39.822Z,54.15
2022-12-20T18:08:12.832Z,54.60
2022-12-20T18:10:40.739Z,54.30
2022-12-20T18:13:08.630Z,54.65
2022-12-20T18:15:39.007Z,54.53
2022-12-20T18:18:06.747Z,54.49
2022-12-20T18:20:34.582Z,54.77
2022-12-20T18:23:02.245Z,54.47
2022-12-20T18:25:30.603Z,54.46
2022-12-20T18:27:58.261Z,54.44
2022-12-20T18:30:26.322Z,54.69
2022-12-20T18:32:54.031Z,54.87
2022-12-20T18:35:22.125Z,54.33
2022-12-20T18:37:50.220Z,54.34
2022-12-20T18:40:18.747Z,54.66
2022-12-20T18:42:46.490Z,54.46
2022-12-20T18:45:14.862Z,55.04
2022-12-20T18:47:42.478Z,55.01
2022-12-20T18:50:13.341Z,55.09
2022-12-20T18:52:43.239Z,55.30
2022-12-20T18:55:15.669Z,55.27
2022-12-20T18:57:43.419Z,55.43
2022-12-20T19:00:12.791Z,55.09
2022-12-20T19:02:41.503Z,55.09
2022-12-20T19:05:09.929Z,55.17
2022-12-20T19:07:37.594Z,55.25
2022-12-20T19:10:06.202Z,55.59
2022-12-20T19:12:34.874Z,55.38
2022-12-20T19:15:02.958Z,55.42
2022-12-20T19:17:30.461Z,55.25
2022-12-20T19:19:58.353Z,55.54
2022-12-20T19:22:26.145Z,55.24
2022-12-20T19:24:55.730Z,55.58
2022-12-20T19:27:23.739Z,54.94
2022-12-20T19:29:52.996Z,55.53
2022-12-20T19:32:20.586Z,55.09
2022-12-20T19:34:48.434Z,55.69
2022-12-20T19:37:16.205Z,55.03
2022-12-20T19:39:44.165Z,55.11
2022-12-20T19:42:27.089Z,54.99
2022-12-20T19:44:55.020Z,55.66
2022-12-20T19:47:23.627Z,55.83
2022-12-20T19:49:51.528Z,55.85
2022-12-20T19:52:28.877Z,56.64
2022-12-20T19:54:57.353Z,56.57
2022-12-20T19:57:25.055Z,57.04
2022-12-20T19:59:56.186Z,57.17
2022-12-20T20:02:25.126Z,57.49
2022-12-20T20:04:53.370Z,57.30
2022-12-20T20:07:21.189Z,57.64
2022-12-20T20:09:49.042Z,57.91
2022-12-20T20:12:16.691Z,57.64
2022-12-20T20:14:44.659Z,57.07
2022-12-20T20:17:12.271Z,56.96
2022-12-20T20:19:40.769Z,57.22
2022-12-20T20:22:10.738Z,55.97
2022-12-20T20:24:38.710Z,54.64
2022-12-20T20:27:06.425Z,53.85
2022-12-20T20:29:34.400Z,53.17
2022-12-20T20:32:03.349Z,53.85
2022-12-20T20:34:31.320Z,54.47
2022-12-20T20:36:59.130Z,54.97
2022-12-20T20:39:27.159Z,55.20
2022-12-20T20:41:54.716Z,55.54
2022-12-20T20:44:22.662Z,55.67
2022-12-20T20:46:50.219Z,56.30
2022-12-20T20:49:19.830Z,56.20
2022-12-20T20:51:47.423Z,56.66
2022-12-20T20:54:15.465Z,56.66
2022-12-20T20:56:43.155Z,56.66
2022-12-20T20:59:17.301Z,56.79
2022-12-20T21:01:45.735Z,57.50
2022-12-20T21:04:13.718Z,57.08
2022-12-20T21:06:42.275Z,57.38
2022-12-20T21:09:11.554Z,57.41
2022-12-20T21:11:39.557Z,57.82
2022-12-20T21:14:08.245Z,58.67
2022-12-20T21:16:36.971Z,58.48
2022-12-20T21:19:05.908Z,57.95
2022-12-20T21:21:33.645Z,58.10
2022-12-20T21:24:01.942Z,58.19
2022-12-20T21:26:29.865Z,58.38
2022-12-20T21:28:59.917Z,58.86
2022-12-20T21:31:28.228Z,58.46
2022-12-20T21:33:57.718Z,58.98
2022-12-20T21:36:25.682Z,58.92
2022-12-20T21:38:56.937Z,59.17
2022-12-20T21:41:28.869Z,59.73
2022-12-20T21:44:01.221Z,59.99
2022-12-20T21:46:32.099Z,59.84
2022-12-20T21:49:00.845Z,60.06
2022-12-20T21:51:30.677Z,60.43
2022-12-20T21:54:00.980Z,60.70
2022-12-20T21:56:32.742Z,60.71
2022-12-20T21:59:02.551Z,61.14
2022-12-20T22:01:31.813Z,61.01
2022-12-20T22:04:05.952Z,60.61
2022-12-20T22:06:36.433Z,60.22
2022-12-20T22:09:07.484Z,60.81
2022-12-20T22:11:35.767Z,60.57
2022-12-20T22:14:03.822Z,60.60
2022-12-20T22:16:32.448Z,60.76
2022-12-20T22:19:01.679Z,60.81
2022-12-20T22:21:32.357Z,61.03
2022-12-20T22:24:03.106Z,60.98
2022-12-20T22:26:33.781Z,60.87
2022-12-20T22:29:06.072Z,61.30
2022-12-20T22:31:35.045Z,61.48
2022-12-20T22:34:03.425Z,61.75
2022-12-20T22:36:31.754Z,61.56
2022-12-20T22:38:59.750Z,61.64
2022-12-20T22:41:30.857Z,62.09
2022-12-20T22:43:59.851Z,61.42
2022-12-20T22:49:18.470Z,61.25
2022-12-20T22:51:59.148Z,61.69
2022-12-20T22:54:30.637Z,61.38
2022-12-20T22:56:58.219Z,61.58
2022-12-20T22:59:26.477Z,61.55
2022-12-20T23:01:54.167Z,61.29
2022-12-20T23:04:22.363Z,61.50
2022-12-20T23:06:50.009Z,61.44
2022-12-20T23:09:17.978Z,60.78
2022-12-20T23:12:04.555Z,61.41
2022-12-20T23:14:51.064Z,60.98
2022-12-20T23:17:18.648Z,60.98
2022-12-20T23:20:05.292Z,61.03
2022-12-20T23:22:39.447Z,60.87
2022-12-20T23:25:14.645Z,61.32
2022-12-20T23:27:44.454Z,61.43
2022-12-20T23:30:17.280Z,61.58
2022-12-20T23:32:45.244Z,62.03
2022-12-20T23:35:16.745Z,61.63
2022-12-20T23:37:46.054Z,62.34
2022-12-20T23:40:16.441Z,62.41
2022-12-20T23:42:44.976Z,62.46
2022-12-20T23:45:13.319Z,62.54
2022-12-20T23:47:41.053Z,62.87
2022-12-20T23:50:09.471Z,63.07
2022-12-20T23:52:37.018Z,62.89
2022-12-20T23:55:05.916Z,62.45
2022-12-20T23:57:33.540Z,63.03
